Time;durP1;ratioP1;P1;durP2;ratioP2;P2;SDS_P1;SDS_P2;PMS_P1;PMS_P2;Temp;Humidity;BMP_temperature;BMP_pressure;BME280_temperature;BME280_humidity;BME280_pressure;Samples;Min_cycle;Max_cycle;Signal;HPM_P1;HPM_P2
2024/03/21 00:01:39;;;;;;;31.08;20.48;;;13.30;99.90;;;;;;5026486;28;20037;-77
2024/03/21 00:04:05;;;;;;;31.70;22.35;;;13.30;99.90;;;;;;5026878;28;20490;-77
2024/03/21 00:06:30;;;;;;;28.30;19.70;;;13.20;99.90;;;;;;5028264;28;20049;-77
2024/03/21 00:08:56;;;;;;;27.77;21.15;;;13.20;99.90;;;;;;5027682;28;20463;-77
2024/03/21 00:11:22;;;;;;;33.03;22.98;;;13.30;99.90;;;;;;5027882;28;20068;-77
2024/03/21 00:13:48;;;;;;;34.33;24.08;;;13.30;99.90;;;;;;5026546;28;20029;-77
2024/03/21 00:16:13;;;;;;;35.65;26.63;;;13.30;99.90;;;;;;5028201;28;20034;-77
2024/03/21 00:18:39;;;;;;;35.65;26.48;;;13.30;99.90;;;;;;5027988;28;20025;-78
2024/03/21 00:21:05;;;;;;;42.38;27.25;;;13.30;99.90;;;;;;5025261;28;20405;-77
2024/03/21 00:23:31;;;;;;;37.95;28.38;;;13.30;99.90;;;;;;5025218;28;20036;-77
2024/03/21 00:26:00;;;;;;;41.67;28.10;;;13.30;99.90;;;;;;5024704;28;20047;-77
2024/03/21 00:28:26;;;;;;;42.17;27.00;;;13.30;99.90;;;;;;5026257;28;20028;-77
2024/03/21 00:30:56;;;;;;;45.95;29.83;;;13.30;99.90;;;;;;5025642;28;20034;-77
2024/03/21 00:33:22;;;;;;;47.80;31.77;;;13.30;99.90;;;;;;5024739;28;20463;-78
2024/03/21 00:35:48;;;;;;;44.38;32.70;;;13.30;99.90;;;;;;5026528;28;20087;-79
2024/03/21 00:38:13;;;;;;;42.97;30.17;;;13.30;99.90;;;;;;5025946;28;20029;-77
2024/03/21 00:40:39;;;;;;;49.60;32.75;;;13.20;99.90;;;;;;5027450;28;20059;-77
2024/03/21 00:43:05;;;;;;;57.05;36.80;;;13.20;99.90;;;;;;5021803;28;20385;-77
2024/03/21 00:45:30;;;;;;;61.38;39.55;;;13.20;99.90;;;;;;5025793;28;20536;-77
2024/03/21 00:47:56;;;;;;;61.95;35.83;;;13.30;99.90;;;;;;5027499;28;20425;-78
2024/03/21 00:50:22;;;;;;;51.65;34.80;;;13.20;99.90;;;;;;5025154;28;20459;-77
2024/03/21 00:52:48;;;;;;;52.08;35.25;;;13.20;99.90;;;;;;5027371;28;20033;-77
2024/03/21 00:55:14;;;;;;;55.45;35.25;;;13.20;99.90;;;;;;5027590;28;20033;-78
2024/03/21 00:57:40;;;;;;;61.58;38.17;;;13.20;99.90;;;;;;5026929;28;20021;-77
2024/03/21 01:00:07;;;;;;;62.10;40.03;;;13.20;99.90;;;;;;5026767;28;20021;-77
2024/03/21 01:02:34;;;;;;;54.20;37.17;;;13.20;99.90;;;;;;5026324;28;20033;-78
2024/03/21 01:05:01;;;;;;;64.28;41.22;;;13.30;99.90;;;;;;5027095;28;20393;-77
2024/03/21 01:07:27;;;;;;;60.85;42.50;;;13.30;99.90;;;;;;5026671;28;20058;-78
2024/03/21 01:09:53;;;;;;;66.13;42.10;;;13.30;99.90;;;;;;5025471;28;20025;-78
2024/03/21 01:12:19;;;;;;;64.03;42.17;;;13.30;99.90;;;;;;5026636;28;20037;-77
2024/03/21 01:14:45;;;;;;;64.82;43.60;;;13.20;99.90;;;;;;5029968;28;20382;-76
2024/03/21 01:17:10;;;;;;;70.20;44.88;;;13.30;99.90;;;;;;5031647;28;20379;-72
2024/03/21 01:19:37;;;;;;;44.70;28.77;;;13.30;99.90;;;;;;5032392;28;20045;-78
2024/03/21 01:22:03;;;;;;;64.82;41.38;;;13.30;99.90;;;;;;5020159;28;20108;-83
2024/03/21 01:24:29;;;;;;;68.88;44.28;;;13.30;99.90;;;;;;5031313;28;20116;-77
2024/03/21 01:26:54;;;;;;;67.50;44.83;;;13.30;99.90;;;;;;5027676;28;20500;-76
2024/03/21 01:29:20;;;;;;;72.55;46.90;;;13.30;99.90;;;;;;5031767;28;20036;-79
2024/03/21 01:31:46;;;;;;;77.15;48.58;;;13.30;99.90;;;;;;5032207;28;20045;-77
2024/03/21 01:34:12;;;;;;;79.03;50.72;;;13.30;99.90;;;;;;5031661;28;20466;-76
2024/03/21 01:36:45;;;;;;;79.07;50.20;;;13.30;99.90;;;;;;5032103;28;20025;-77
2024/03/21 01:39:12;;;;;;;84.18;51.80;;;13.30;99.90;;;;;;5029934;28;20025;-78
2024/03/21 01:41:38;;;;;;;72.18;47.78;;;13.30;99.90;;;;;;5031827;28;20342;-77
2024/03/21 01:44:03;;;;;;;73.82;48.47;;;13.30;99.90;;;;;;5030386;28;20608;-77
2024/03/21 01:46:29;;;;;;;80.60;49.47;;;13.30;99.90;;;;;;5031632;28;20033;-77
2024/03/21 01:48:55;;;;;;;73.20;46.33;;;13.30;99.90;;;;;;5027892;28;20025;-76
2024/03/21 01:51:24;;;;;;;79.45;48.60;;;13.30;99.90;;;;;;5025035;28;20041;-76
2024/03/21 01:53:51;;;;;;;79.57;51.40;;;13.30;99.90;;;;;;5037145;28;20017;-78
2024/03/21 01:56:17;;;;;;;77.78;48.90;;;13.30;99.90;;;;;;5029621;28;20450;-76
2024/03/21 01:58:43;;;;;;;89.28;53.10;;;13.30;99.90;;;;;;5027567;28;20025;-77
2024/03/21 02:01:20;;;;;;;78.07;48.40;;;13.30;99.90;;;;;;5031325;28;20460;-76
2024/03/21 02:03:46;;;;;;;79.88;50.40;;;13.30;99.90;;;;;;5031578;28;20025;-76
2024/03/21 02:06:12;;;;;;;95.55;52.97;;;13.30;99.90;;;;;;5030442;28;20071;-76
2024/03/21 02:08:38;;;;;;;77.28;51.00;;;13.30;99.90;;;;;;5030385;28;20029;-76
2024/03/21 02:11:04;;;;;;;88.07;51.67;;;13.30;99.90;;;;;;5030424;28;20121;-75
2024/03/21 02:13:29;;;;;;;80.97;48.67;;;13.30;99.90;;;;;;5030682;28;20041;-76
2024/03/21 02:15:55;;;;;;;78.43;51.70;;;13.30;99.90;;;;;;5031046;28;20029;-76
2024/03/21 02:18:21;;;;;;;82.75;55.03;;;13.30;99.90;;;;;;5032024;28;20100;-76
2024/03/21 02:20:47;;;;;;;80.47;53.80;;;13.30;99.90;;;;;;5031648;28;20032;-76
2024/03/21 02:23:12;;;;;;;94.65;56.65;;;13.30;99.90;;;;;;5031587;28;20374;-76
2024/03/21 02:25:38;;;;;;;78.43;51.95;;;13.40;99.90;;;;;;5031313;28;20033;-76
2024/03/21 02:28:06;;;;;;;90.63;58.85;;;13.40;99.90;;;;;;5031434;28;20052;-75
2024/03/21 02:30:32;;;;;;;94.97;56.58;;;13.30;99.90;;;;;;5031453;28;20412;-76
2024/03/21 02:33:00;;;;;;;90.82;53.78;;;13.40;99.90;;;;;;5031860;28;20130;-76
2024/03/21 02:35:26;;;;;;;87.03;53.20;;;13.30;99.90;;;;;;5031170;28;20478;-75
2024/03/21 02:37:51;;;;;;;88.28;52.13;;;13.20;99.90;;;;;;5031655;28;20132;-75
2024/03/21 02:40:17;;;;;;;84.18;53.35;;;13.30;99.90;;;;;;5030572;28;20021;-75
2024/03/21 02:42:43;;;;;;;88.32;54.53;;;13.30;99.90;;;;;;5030087;28;20053;-75
2024/03/21 02:45:09;;;;;;;91.25;56.17;;;13.30;99.90;;;;;;5031653;28;20099;-77
2024/03/21 02:47:35;;;;;;;87.10;52.80;;;13.30;99.90;;;;;;5029776;28;20029;-76
2024/03/21 02:50:01;;;;;;;94.03;55.80;;;13.30;99.90;;;;;;5031214;28;20105;-76
2024/03/21 02:52:27;;;;;;;85.93;53.58;;;13.20;99.90;;;;;;5038972;28;20128;-75
2024/03/21 02:54:52;;;;;;;84.00;52.10;;;13.20;99.90;;;;;;5030297;28;20030;-76
2024/03/21 02:57:18;;;;;;;84.55;52.35;;;13.20;99.90;;;;;;5030899;28;20033;-76
2024/03/21 02:59:44;;;;;;;85.65;53.20;;;13.20;99.90;;;;;;5031564;28;20757;-76
2024/03/21 03:02:10;;;;;;;85.00;53.83;;;13.20;99.90;;;;;;5030919;28;20028;-76
2024/03/21 03:04:36;;;;;;;94.35;57.10;;;13.20;99.90;;;;;;5024047;28;20025;-76
2024/03/21 03:07:02;;;;;;;89.72;55.20;;;13.20;99.90;;;;;;5031241;28;20393;-76
2024/03/21 03:09:28;;;;;;;94.70;57.78;;;13.20;99.90;;;;;;5029961;28;20013;-75
2024/03/21 03:11:53;;;;;;;99.25;55.95;;;13.20;99.90;;;;;;5030948;28;20119;-75
2024/03/21 03:14:19;;;;;;;87.93;54.13;;;13.20;99.90;;;;;;5033931;28;20025;-75
2024/03/21 03:16:45;;;;;;;90.82;53.90;;;13.20;99.90;;;;;;5034992;28;20429;-75
2024/03/21 03:19:11;;;;;;;83.55;51.42;;;13.20;99.90;;;;;;5034923;28;20021;-75
2024/03/21 03:21:36;;;;;;;81.43;50.20;;;13.10;99.90;;;;;;5033747;28;20530;-75
2024/03/21 03:24:02;;;;;;;82.38;52.65;;;13.10;99.90;;;;;;5035029;28;20097;-76
2024/03/21 03:26:28;;;;;;;87.43;52.55;;;13.10;99.90;;;;;;5033500;28;20025;-75
2024/03/21 03:28:55;;;;;;;79.05;48.92;;;13.10;99.90;;;;;;5034892;28;20025;-75
2024/03/21 03:31:21;;;;;;;75.82;51.25;;;13.00;99.90;;;;;;5034727;28;20036;-75
2024/03/21 03:36:31;;;;;;;83.57;50.78;;;13.00;99.90;;;;;;5033387;28;20079;-75
2024/03/21 03:38:57;;;;;;;79.15;47.80;;;13.00;99.90;;;;;;5034678;28;20032;-75
2024/03/21 03:41:23;;;;;;;76.43;49.47;;;12.90;99.90;;;;;;5034593;28;20030;-74
2024/03/21 03:43:48;;;;;;;69.68;47.67;;;12.80;99.90;;;;;;5034528;28;20360;-75
2024/03/21 03:46:14;;;;;;;69.00;43.50;;;12.90;99.90;;;;;;5034112;28;20498;-75
2024/03/21 03:48:40;;;;;;;72.10;45.03;;;12.80;99.90;;;;;;5034193;28;20041;-74
2024/03/21 03:51:06;;;;;;;71.50;43.60;;;12.80;99.90;;;;;;5035335;28;20028;-74
2024/03/21 03:53:31;;;;;;;68.30;41.13;;;12.80;99.90;;;;;;5033821;28;20501;-75
2024/03/21 03:55:57;;;;;;;70.80;41.20;;;12.80;99.90;;;;;;5034065;28;20018;-76
2024/03/21 03:58:23;;;;;;;68.25;43.63;;;12.80;99.90;;;;;;5034401;28;20473;-75
2024/03/21 04:01:00;;;;;;;62.83;38.85;;;12.80;99.90;;;;;;5034124;28;20013;-76
2024/03/21 04:03:27;;;;;;;58.05;36.85;;;12.80;99.90;;;;;;5027057;28;20056;-74
2024/03/21 04:05:59;;;;;;;61.65;36.85;;;12.70;99.90;;;;;;5028251;28;20112;-75
2024/03/21 04:08:26;;;;;;;59.30;36.22;;;12.70;99.90;;;;;;5034229;28;20105;-75
2024/03/21 04:10:52;;;;;;;52.60;34.08;;;12.70;99.90;;;;;;5033053;28;20153;-74
2024/03/21 04:13:17;;;;;;;52.83;35.30;;;12.70;99.90;;;;;;5034107;28;20449;-74
2024/03/21 04:15:43;;;;;;;57.97;35.40;;;12.60;99.90;;;;;;5033606;28;20032;-75
2024/03/21 04:18:09;;;;;;;51.65;35.47;;;12.60;99.90;;;;;;5033115;28;20124;-74
2024/03/21 04:20:35;;;;;;;52.63;35.55;;;12.60;99.90;;;;;;5034032;28;20018;-74
2024/03/21 04:23:00;;;;;;;51.15;31.70;;;12.60;99.90;;;;;;5032306;28;20061;-74
2024/03/21 04:25:26;;;;;;;48.05;32.17;;;12.60;99.90;;;;;;5034018;28;20453;-75
2024/03/21 04:27:52;;;;;;;53.90;30.77;;;12.60;99.90;;;;;;5033085;28;20752;-75
2024/03/21 04:30:17;;;;;;;46.00;30.33;;;12.60;99.90;;;;;;5033987;28;20026;-75
2024/03/21 04:32:43;;;;;;;47.38;30.30;;;12.60;99.90;;;;;;5033241;28;20041;-76
2024/03/21 04:35:09;;;;;;;48.03;29.77;;;12.50;99.90;;;;;;5033343;28;20388;-75
2024/03/21 04:37:35;;;;;;;48.25;29.38;;;12.50;99.90;;;;;;5032951;28;20033;-75
2024/03/21 04:40:01;;;;;;;46.47;28.50;;;12.50;99.90;;;;;;5033188;28;20021;-75
2024/03/21 04:42:27;;;;;;;48.08;29.30;;;12.50;99.90;;;;;;5033460;28;20033;-75
2024/03/21 04:44:52;;;;;;;49.05;30.30;;;12.40;99.90;;;;;;5033375;28;20036;-75
2024/03/21 04:47:18;;;;;;;56.33;31.65;;;12.40;99.90;;;;;;5032830;28;20540;-74
2024/03/21 04:49:44;;;;;;;49.08;31.10;;;12.40;99.90;;;;;;5033055;28;20029;-72
2024/03/21 04:52:10;;;;;;;49.17;30.80;;;12.40;99.90;;;;;;5037806;28;20394;-73
2024/03/21 04:54:36;;;;;;;48.47;31.55;;;12.40;99.90;;;;;;5033354;28;20022;-73
2024/03/21 04:57:02;;;;;;;45.95;29.73;;;12.40;99.90;;;;;;5033292;28;20029;-73
2024/03/21 04:59:28;;;;;;;46.20;29.65;;;12.40;99.90;;;;;;5033226;28;20030;-74
2024/03/21 05:01:57;;;;;;;51.40;28.98;;;12.40;99.90;;;;;;5032443;28;20079;-73
2024/03/21 05:04:23;;;;;;;48.65;30.58;;;12.40;99.90;;;;;;5032899;28;20096;-73
2024/03/21 05:06:49;;;;;;;47.95;30.15;;;12.50;99.90;;;;;;5032878;28;20953;-74
2024/03/21 05:09:15;;;;;;;49.97;32.63;;;12.50;99.90;;;;;;5033132;28;20502;-72
2024/03/21 05:11:40;;;;;;;54.92;30.50;;;12.50;99.90;;;;;;5032745;28;20075;-73
2024/03/21 05:14:06;;;;;;;53.33;31.40;;;12.50;99.90;;;;;;5032794;28;20501;-73
2024/03/21 05:16:32;;;;;;;50.45;30.77;;;12.50;99.90;;;;;;5032354;28;20525;-73
2024/03/21 05:18:57;;;;;;;52.50;32.13;;;12.50;99.90;;;;;;5032853;28;20532;-72
2024/03/21 05:21:23;;;;;;;54.95;30.10;;;12.50;99.90;;;;;;5032717;28;20454;-73
2024/03/21 05:23:49;;;;;;;56.30;31.52;;;12.60;99.90;;;;;;5032521;28;20029;-73
2024/03/21 05:26:15;;;;;;;49.78;30.60;;;12.60;99.90;;;;;;5030960;28;20022;-75
2024/03/21 05:28:41;;;;;;;53.72;30.33;;;12.60;99.90;;;;;;5032262;28;20033;-73
2024/03/21 05:31:23;;;;;;;53.60;31.17;;;12.60;99.90;;;;;;5031923;28;20048;-74
2024/03/21 05:33:49;;;;;;;;;;;12.60;99.90;;;;;;5032866;28;20036;-73
2024/03/21 05:36:16;;;;;;;51.05;31.50;;;12.60;99.90;;;;;;5031922;28;19909;-75
2024/03/21 05:38:43;;;;;;;61.92;34.72;;;12.60;99.90;;;;;;5031504;28;20382;-73
2024/03/21 05:41:09;;;;;;;55.97;33.85;;;12.60;99.90;;;;;;5030925;28;20021;-74
2024/03/21 05:43:35;;;;;;;55.80;33.30;;;12.60;99.90;;;;;;5031040;28;20030;-73
2024/03/21 05:46:01;;;;;;;56.95;34.15;;;12.60;99.90;;;;;;5031329;28;20061;-74
2024/03/21 05:48:27;;;;;;;56.65;35.25;;;12.60;99.90;;;;;;5032168;28;20025;-73
2024/03/21 05:50:53;;;;;;;62.05;33.75;;;12.60;99.90;;;;;;5033470;28;20071;-73
2024/03/21 05:53:18;;;;;;;53.75;32.40;;;12.60;99.90;;;;;;5038773;28;20478;-74
2024/03/21 05:56:14;;;;;;;52.58;33.25;;;12.60;99.90;;;;;;5031756;28;20025;-74
2024/03/21 05:58:40;;;;;;;62.38;35.03;;;12.60;99.90;;;;;;5031360;28;20037;-73
2024/03/21 06:03:32;;;;;;;58.67;35.92;;;12.50;99.90;;;;;;5032091;28;20095;-74
2024/03/21 06:05:59;;;;;;;64.15;36.30;;;12.60;99.90;;;;;;5031096;28;20429;-74
2024/03/21 06:08:25;;;;;;;57.97;35.72;;;12.60;99.90;;;;;;5029242;28;20821;-73
2024/03/21 06:10:51;;;;;;;61.97;38.05;;;12.60;99.90;;;;;;5023784;28;20044;-73
2024/03/21 06:13:17;;;;;;;60.33;34.97;;;12.60;99.90;;;;;;5025485;28;20065;-74
2024/03/21 06:15:43;;;;;;;55.88;34.53;;;12.70;99.90;;;;;;5031528;28;20041;-74
2024/03/21 06:18:08;;;;;;;61.08;35.70;;;12.70;99.90;;;;;;5031743;28;20347;-74
2024/03/21 06:20:34;;;;;;;62.78;38.25;;;12.70;99.90;;;;;;5031891;28;20026;-74
2024/03/21 06:23:00;;;;;;;57.10;34.00;;;12.70;99.90;;;;;;5031096;28;20026;-74
2024/03/21 06:25:26;;;;;;;57.08;33.42;;;12.70;99.90;;;;;;5031599;28;20064;-74
2024/03/21 06:27:52;;;;;;;56.03;33.15;;;12.60;99.90;;;;;;5030504;28;20064;-75
2024/03/21 06:30:18;;;;;;;52.22;34.90;;;12.60;99.90;;;;;;5031465;28;20064;-74
2024/03/21 06:32:44;;;;;;;53.88;33.83;;;12.70;99.90;;;;;;5030609;28;20426;-73
2024/03/21 06:35:12;;;;;;;50.90;31.63;;;12.70;99.90;;;;;;5031853;28;20059;-75
2024/03/21 06:37:38;;;;;;;52.78;32.53;;;12.60;99.90;;;;;;5026752;28;20030;-74
2024/03/21 06:40:05;;;;;;;55.55;33.92;;;12.70;99.90;;;;;;5025201;28;20026;-74
2024/03/21 06:42:31;;;;;;;53.42;33.40;;;12.70;99.90;;;;;;5031188;28;20108;-74
2024/03/21 06:44:58;;;;;;;49.85;30.08;;;12.70;99.90;;;;;;5031642;28;20017;-74
2024/03/21 06:47:24;;;;;;;28.10;19.42;;;12.80;99.90;;;;;;5030243;28;20044;-77
2024/03/21 06:49:50;;;;;;;34.58;23.20;;;12.80;99.90;;;;;;5034542;28;20021;-74
2024/03/21 06:52:16;;;;;;;32.47;21.40;;;12.80;99.90;;;;;;5042474;28;20549;-75
2024/03/21 06:54:42;;;;;;;28.83;20.58;;;12.80;99.90;;;;;;5035653;28;20077;-75
2024/03/21 06:57:08;;;;;;;22.90;17.52;;;12.70;99.90;;;;;;5034472;28;20483;-75
2024/03/21 06:59:33;;;;;;;26.90;17.20;;;12.70;99.90;;;;;;5034831;28;20773;-74
2024/03/21 07:01:59;;;;;;;19.80;14.43;;;12.70;99.90;;;;;;5034713;28;20116;-77
2024/03/21 07:04:25;;;;;;;23.73;14.40;;;12.70;99.90;;;;;;5034993;28;20025;-76
2024/03/21 07:06:51;;;;;;;17.85;13.68;;;12.60;99.90;;;;;;5035143;28;20033;-74
2024/03/21 07:09:16;;;;;;;19.33;14.07;;;12.60;99.90;;;;;;5032449;28;20028;-75
2024/03/21 07:11:42;;;;;;;16.38;12.85;;;12.60;99.90;;;;;;5032516;28;20037;-78
2024/03/21 07:14:09;;;;;;;17.13;12.55;;;12.60;99.90;;;;;;5035043;28;20033;-77
2024/03/21 07:16:35;;;;;;;15.57;13.68;;;12.60;99.90;;;;;;5033768;28;20037;-78
2024/03/21 07:19:01;;;;;;;21.20;12.77;;;12.60;99.90;;;;;;5034064;28;20035;-75
2024/03/21 07:21:27;;;;;;;13.57;11.38;;;12.60;99.90;;;;;;5032677;28;20065;-75
2024/03/21 07:23:53;;;;;;;14.50;12.55;;;12.60;99.90;;;;;;5032327;28;20037;-75
2024/03/21 07:26:19;;;;;;;13.20;10.82;;;12.70;99.90;;;;;;5021335;28;20029;-74
2024/03/21 07:28:44;;;;;;;12.02;10.55;;;12.60;99.90;;;;;;5034341;28;20103;-75
2024/03/21 07:31:10;;;;;;;15.52;10.98;;;12.70;99.90;;;;;;5033775;28;20387;-75
2024/03/21 07:33:36;;;;;;;15.57;10.75;;;12.70;99.90;;;;;;5033784;28;20067;-74
2024/03/21 07:36:03;;;;;;;14.95;10.82;;;12.70;99.90;;;;;;5033198;28;20028;-74
2024/03/21 07:38:28;;;;;;;13.70;10.50;;;12.70;99.90;;;;;;5034569;28;20036;-74
2024/03/21 07:40:59;;;;;;;15.50;10.63;;;12.70;99.90;;;;;;5034179;28;20390;-76
2024/03/21 07:43:25;;;;;;;16.77;12.02;;;12.60;99.90;;;;;;5032566;28;20512;-76
2024/03/21 07:45:51;;;;;;;18.48;13.50;;;12.60;99.90;;;;;;5024535;28;20025;-75
2024/03/21 07:48:17;;;;;;;22.83;15.35;;;12.70;99.90;;;;;;5026113;28;20083;-74
2024/03/21 07:50:43;;;;;;;24.08;16.98;;;12.60;99.90;;;;;;5033589;28;20029;-75
2024/03/21 07:53:09;;;;;;;25.80;17.90;;;12.60;99.90;;;;;;5031328;28;20030;-75
2024/03/21 07:55:34;;;;;;;30.23;20.60;;;12.60;99.90;;;;;;5033340;28;20480;-77
2024/03/21 07:58:06;;;;;;;32.53;19.30;;;12.60;99.90;;;;;;5033661;28;20569;-75
2024/03/21 08:00:33;;;;;;;24.73;18.45;;;12.60;99.90;;;;;;5033943;28;20026;-76
2024/03/21 08:02:59;;;;;;;25.40;17.95;;;12.60;99.90;;;;;;5031826;28;20108;-76
2024/03/21 08:05:25;;;;;;;27.42;18.60;;;12.70;99.90;;;;;;5031014;28;20152;-76
2024/03/21 08:07:51;;;;;;;30.63;19.92;;;12.70;99.90;;;;;;5021894;28;20061;-75
2024/03/21 08:10:17;;;;;;;25.83;18.90;;;12.70;99.90;;;;;;5033044;28;20032;-75
2024/03/21 08:12:42;;;;;;;25.90;19.50;;;12.80;99.90;;;;;;5030529;28;20198;-77
2024/03/21 08:15:08;;;;;;;32.10;20.73;;;12.90;99.90;;;;;;5034133;28;20438;-76
2024/03/21 08:17:34;;;;;;;25.90;18.30;;;12.90;99.90;;;;;;5033546;28;20040;-77
2024/03/21 08:20:01;;;;;;;26.10;18.50;;;12.90;99.90;;;;;;5033446;28;20017;-77
2024/03/21 08:22:27;;;;;;;27.45;18.17;;;12.90;99.90;;;;;;5033857;28;20021;-77
2024/03/21 08:24:52;;;;;;;24.50;17.48;;;12.90;99.90;;;;;;5032015;28;20458;-76
2024/03/21 08:27:19;;;;;;;24.63;17.10;;;13.00;99.90;;;;;;5033900;28;20034;-78
2024/03/21 08:29:51;;;;;;;23.88;17.67;;;13.00;99.90;;;;;;5033606;28;20053;-75
2024/03/21 08:32:23;;;;;;;24.08;17.60;;;13.10;99.90;;;;;;5024524;28;20485;-76
2024/03/21 08:34:49;;;;;;;21.63;15.93;;;13.00;99.90;;;;;;5031630;28;20068;-78
2024/03/21 08:37:14;;;;;;;25.40;15.88;;;13.10;99.90;;;;;;5033359;28;20033;-76
2024/03/21 08:39:41;;;;;;;19.52;15.73;;;13.20;99.90;;;;;;5032476;28;20018;-76
2024/03/21 08:42:07;;;;;;;21.67;16.00;;;13.20;99.90;;;;;;5033720;28;20113;-76
2024/03/21 08:44:33;;;;;;;20.75;15.88;;;13.20;99.90;;;;;;5032146;28;20120;-78
2024/03/21 08:46:59;;;;;;;21.85;16.60;;;13.20;99.90;;;;;;5024250;28;20038;-76
2024/03/21 08:49:25;;;;;;;22.08;15.43;;;13.20;99.90;;;;;;5032454;28;20026;-77
2024/03/21 08:51:51;;;;;;;19.15;15.15;;;13.10;99.90;;;;;;5040151;28;20043;-76
2024/03/21 08:54:16;;;;;;;23.45;16.67;;;13.20;99.90;;;;;;5032667;28;20410;-76
2024/03/21 08:56:42;;;;;;;20.92;16.83;;;13.20;99.90;;;;;;5028561;28;20033;-77
2024/03/21 08:59:09;;;;;;;22.55;16.25;;;13.30;99.90;;;;;;5031764;28;20063;-75
2024/03/21 09:01:35;;;;;;;20.75;16.88;;;13.20;99.90;;;;;;5028830;28;20029;-76
2024/03/21 09:04:01;;;;;;;22.60;17.20;;;13.30;99.90;;;;;;5033181;28;20075;-77
2024/03/21 09:06:30;;;;;;;23.20;16.63;;;13.30;99.90;;;;;;5031135;28;20033;-78
2024/03/21 09:08:56;;;;;;;21.92;16.65;;;13.30;99.90;;;;;;5021953;28;20024;-78
2024/03/21 09:11:22;;;;;;;20.67;16.40;;;13.30;99.90;;;;;;5030985;28;20038;-76
2024/03/21 09:13:48;;;;;;;17.73;14.80;;;13.40;99.90;;;;;;5031790;28;20032;-76
2024/03/21 09:16:14;;;;;;;21.83;16.55;;;13.30;99.90;;;;;;5026732;28;20080;-76
2024/03/21 09:18:43;;;;;;;21.23;15.48;;;13.40;99.90;;;;;;5030800;28;20032;-76
2024/03/21 09:21:12;;;;;;;26.52;17.67;;;13.40;99.90;;;;;;5032951;28;20022;-76
2024/03/21 09:23:38;;;;;;;22.02;17.63;;;13.30;99.90;;;;;;5032392;28;20049;-76
2024/03/21 09:26:04;;;;;;;22.80;18.33;;;13.40;99.90;;;;;;5032640;28;20029;-76
2024/03/21 09:28:30;;;;;;;24.65;17.23;;;13.40;99.90;;;;;;5031531;28;20017;-75
2024/03/21 09:30:56;;;;;;;20.65;16.08;;;13.30;99.90;;;;;;5031390;28;20465;-76
2024/03/21 09:33:21;;;;;;;24.17;18.17;;;13.40;99.90;;;;;;5030663;28;20022;-75
2024/03/21 09:36:01;;;;;;;24.50;19.70;;;13.30;99.90;;;;;;5031099;28;20092;-77
2024/03/21 09:38:27;;;;;;;24.23;18.20;;;13.40;99.90;;;;;;5019651;28;20138;-76
2024/03/21 09:40:53;;;;;;;25.67;17.02;;;13.40;99.90;;;;;;5032564;28;20030;-75
2024/03/21 09:43:18;;;;;;;20.15;16.30;;;13.40;99.90;;;;;;5032432;28;20026;-74
2024/03/21 09:45:45;;;;;;;21.17;16.00;;;13.40;99.90;;;;;;5031662;28;20037;-75
2024/03/21 09:48:12;;;;;;;18.13;14.55;;;13.40;99.90;;;;;;5032015;28;20039;-75
2024/03/21 09:50:41;;;;;;;18.95;14.00;;;13.50;99.90;;;;;;5031146;28;20079;-75
2024/03/21 09:53:12;;;;;;;16.73;14.02;;;13.50;99.90;;;;;;5040870;28;20474;-75
2024/03/21 09:55:42;;;;;;;18.90;14.88;;;13.40;99.90;;;;;;5031422;28;20036;-76
2024/03/21 09:58:14;;;;;;;17.17;13.75;;;13.50;99.90;;;;;;5031699;28;20037;-76
2024/03/21 10:00:41;;;;;;;17.42;14.52;;;13.50;99.90;;;;;;5030695;28;20021;-77
2024/03/21 10:03:13;;;;;;;16.80;14.75;;;13.50;99.90;;;;;;5031542;28;20498;-77
2024/03/21 10:05:46;;;;;;;20.05;14.65;;;13.50;99.90;;;;;;5030875;28;20466;-77
2024/03/21 10:08:13;;;;;;;18.60;14.43;;;13.60;99.90;;;;;;5031970;28;20025;-76
2024/03/21 10:10:40;;;;;;;19.50;15.07;;;13.70;99.90;;;;;;5030928;28;20109;-76
2024/03/21 10:13:07;;;;;;;24.17;18.33;;;13.70;99.90;;;;;;5032117;28;20033;-76
2024/03/21 10:15:33;;;;;;;21.88;16.38;;;13.70;99.90;;;;;;5030374;28;20736;-76
2024/03/21 10:17:59;;;;;;;20.83;15.70;;;13.70;99.90;;;;;;5031806;28;20025;-77
2024/03/21 10:20:25;;;;;;;19.35;16.58;;;13.60;99.90;;;;;;5029623;28;20025;-76
2024/03/21 10:22:52;;;;;;;22.58;18.02;;;13.70;99.90;;;;;;5030569;28;20466;-77
2024/03/21 10:25:19;;;;;;;21.63;17.55;;;13.60;99.90;;;;;;5027760;28;20120;-76
2024/03/21 10:27:48;;;;;;;20.90;16.58;;;13.60;99.90;;;;;;5029613;28;20156;-78
2024/03/21 10:30:19;;;;;;;23.88;17.83;;;13.60;99.90;;;;;;5028990;28;20116;-75
2024/03/21 10:32:46;;;;;;;23.55;16.55;;;13.60;99.90;;;;;;5031276;28;20033;-76
2024/03/21 10:35:16;;;;;;;20.60;17.20;;;13.70;99.90;;;;;;5029908;28;20021;-76
2024/03/21 10:37:43;;;;;;;19.48;17.35;;;13.70;99.90;;;;;;5029115;28;20068;-75
2024/03/21 10:40:15;;;;;;;20.83;18.63;;;13.70;99.90;;;;;;5031006;28;20030;-75
2024/03/21 10:43:01;;;;;;;;;;;13.80;99.90;;;;;;5030482;28;20479;-76
2024/03/21 10:45:28;;;;;;;28.50;20.23;;;13.90;99.90;;;;;;5030677;28;19931;-75
2024/03/21 10:47:54;;;;;;;28.25;21.75;;;14.00;99.90;;;;;;5030760;28;20033;-76
2024/03/21 10:50:22;;;;;;;60.40;23.83;;;13.90;99.90;;;;;;5030373;28;20036;-76
2024/03/21 10:52:52;;;;;;;27.73;22.13;;;13.90;99.90;;;;;;5038698;28;20037;-75
2024/03/21 10:55:19;;;;;;;30.00;23.67;;;13.90;99.90;;;;;;5031515;28;20375;-78
2024/03/21 10:58:03;;;;;;;32.78;23.85;;;13.80;99.90;;;;;;5030756;28;20017;-75
2024/03/21 11:00:34;;;;;;;32.10;25.13;;;13.80;99.90;;;;;;5025838;28;20098;-76
2024/03/21 11:03:00;;;;;;;26.80;21.65;;;13.80;99.90;;;;;;5030956;28;20034;-77
2024/03/21 11:05:27;;;;;;;28.77;22.77;;;13.80;99.90;;;;;;5030395;28;20021;-77
2024/03/21 11:07:53;;;;;;;33.22;23.75;;;13.80;99.90;;;;;;5030494;28;20033;-76
2024/03/21 11:10:20;;;;;;;27.55;21.88;;;13.90;99.90;;;;;;5030813;28;20091;-76
2024/03/21 11:12:47;;;;;;;23.38;18.73;;;14.00;99.90;;;;;;5030975;28;20037;-76
2024/03/21 11:15:13;;;;;;;23.95;18.48;;;14.00;99.90;;;;;;5030724;28;20687;-76
2024/03/21 11:17:39;;;;;;;24.77;17.95;;;14.10;99.90;;;;;;5029858;28;20112;-76
2024/03/21 11:20:09;;;;;;;22.98;18.55;;;14.10;99.90;;;;;;5019182;28;20060;-76
2024/03/21 11:22:38;;;;;;;22.55;18.55;;;14.10;99.90;;;;;;5012193;28;20022;-76
2024/03/21 11:25:04;;;;;;;23.95;18.60;;;14.10;99.90;;;;;;5024151;28;20028;-76
2024/03/21 11:27:30;;;;;;;24.70;19.05;;;14.10;99.90;;;;;;5023090;28;20137;-76
2024/03/21 11:29:56;;;;;;;26.80;18.67;;;14.10;99.90;;;;;;5023346;28;20120;-76
2024/03/21 11:32:23;;;;;;;26.92;19.52;;;14.10;99.90;;;;;;5023298;28;20037;-76
2024/03/21 11:34:50;;;;;;;20.25;17.95;;;14.10;99.90;;;;;;5024994;28;20110;-76
2024/03/21 11:37:16;;;;;;;24.23;17.25;;;14.10;99.90;;;;;;5027577;28;20128;-76
2024/03/21 11:39:43;;;;;;;23.05;16.38;;;14.10;99.90;;;;;;5026872;28;20530;-76
2024/03/21 11:42:17;;;;;;;18.42;13.43;;;14.10;99.90;;;;;;5025892;28;20035;-76
2024/03/21 11:44:46;;;;;;;15.07;13.32;;;14.10;99.90;;;;;;5028504;28;20501;-76
2024/03/21 11:47:16;;;;;;;14.02;11.95;;;14.10;99.90;;;;;;5025491;28;20152;-76
2024/03/21 11:49:49;;;;;;;12.70;11.40;;;14.20;99.90;;;;;;5026698;28;20024;-76
2024/03/21 11:52:16;;;;;;;13.10;9.65;;;14.30;99.90;;;;;;5026475;28;20497;-76
2024/03/21 11:54:46;;;;;;;12.70;9.30;;;14.30;99.90;;;;;;5026935;28;20029;-76
2024/03/21 11:57:13;;;;;;;9.02;8.13;;;14.20;99.90;;;;;;5026840;28;20071;-76
2024/03/21 11:59:41;;;;;;;13.18;9.02;;;14.40;99.90;;;;;;5026612;28;20056;-76
2024/03/21 12:02:14;;;;;;;14.50;9.85;;;14.40;99.90;;;;;;5027177;28;20014;-77
2024/03/21 12:04:41;;;;;;;13.40;9.48;;;14.60;99.90;;;;;;5027521;28;20448;-77
2024/03/21 12:07:14;;;;;;;9.05;8.02;;;14.80;99.90;;;;;;5027671;28;20017;-77
2024/03/21 12:09:40;;;;;;;11.40;7.80;;;15.00;99.90;;;;;;5026703;28;20052;-77
2024/03/21 12:12:11;;;;;;;9.95;8.50;;;15.10;99.90;;;;;;5026072;28;20033;-77
2024/03/21 12:14:37;;;;;;;7.93;7.13;;;14.90;99.90;;;;;;5025360;28;20025;-76
2024/03/21 12:17:06;;;;;;;7.82;7.00;;;15.10;99.90;;;;;;5027538;28;20025;-75
2024/03/21 12:19:32;;;;;;;7.47;6.75;;;15.10;99.90;;;;;;5027435;28;20033;-77
2024/03/21 12:21:58;;;;;;;8.15;7.40;;;15.10;99.90;;;;;;5027325;28;20541;-76
2024/03/21 12:24:23;;;;;;;8.98;7.75;;;15.10;99.90;;;;;;5027901;28;20097;-77
2024/03/21 12:26:49;;;;;;;8.38;7.57;;;15.20;99.90;;;;;;5027513;28;20029;-76
2024/03/21 12:29:15;;;;;;;8.60;7.80;;;15.20;99.90;;;;;;5027893;28;20150;-77
2024/03/21 12:31:40;;;;;;;8.38;7.68;;;15.60;99.90;;;;;;5026789;28;20033;-77